Garden Plain, Kansas
Current Conditions -  °F | °C
As of 7:53 AM on Thursday 30 Oct 2014 (Local Time) from KICT Reporting Station
Scattered Clouds Scattered Clouds  
Wind Chill: 42°   Ceiling: Unl
Heat Index: 46°   Visibility: 10mi
Dew Point: 35°   Wind: 8mph
Humidity: 66%   Direction: 240°WSW
Pressure: 30.06"   Gusts: NA
Location:  37.66°N, 97.68°W
Report Text: KICT 301253Z 24007KT 10SM SCT150 08/02 A3006 RMK AO2 SLP179 T00780017
Loading
Personal Weather Stations






























Interactive Weather Map New forecast layout! Learn more

10-Day Weather Forecast

Advertisements
Track Severe Weather on mobile